Time;durP1;ratioP1;P1;durP2;ratioP2;P2;SDS_P1;SDS_P2;PMS_P1;PMS_P2;Temp;Humidity;BMP_temperature;BMP_pressure;BME280_temperature;BME280_humidity;BME280_pressure;Samples;Min_cycle;Max_cycle;Signal;HPM_P1;HPM_P2
2022/08/12 00:45:06;;;;;;;;;;;22.30;71.60;;;;;;5033944;28;20020;-65
2022/08/12 00:47:35;;;;;;;;;;;22.30;71.60;;;;;;5034239;28;20916;-65
2022/08/12 00:50:03;;;;;;;;;;;22.20;71.70;;;;;;5033623;28;20478;-65
2022/08/12 00:52:31;;;;;;;;;;;22.20;71.70;;;;;;5033512;28;20021;-65
2022/08/12 00:55:01;;;;;;;;;;;22.20;71.80;;;;;;5033686;28;20019;-65
2022/08/12 00:57:34;;;;;;;;;;;22.20;72.00;;;;;;5033739;28;20030;-65
2022/08/12 01:00:08;;;;;;;;;;;22.10;71.80;;;;;;5033474;28;20025;-65
2022/08/12 01:02:37;;;;;;;;;;;22.10;72.00;;;;;;5033457;28;20291;-65
2022/08/12 01:13:32;;;;;;;;;;;21.90;72.40;;;;;;5033356;28;20596;-65
2022/08/12 01:16:01;;;;;;;;;;;21.90;72.20;;;;;;5033368;28;20033;-65
2022/08/12 01:18:31;;;;;;;;;;;21.90;72.30;;;;;;5033251;28;20076;-65
2022/08/12 01:21:06;;;;;;;;;;;21.90;72.40;;;;;;5033286;28;20024;-65
2022/08/12 01:23:49;;;;;;;;;;;21.80;72.60;;;;;;5032638;28;20007;-64
2022/08/12 01:26:19;;;;;;;;;;;21.80;72.70;;;;;;5033222;28;20436;-65
2022/08/12 01:28:48;;;;;;;;;;;21.80;72.90;;;;;;5033207;28;20028;-64
2022/08/12 01:31:17;;;;;;;;;;;21.80;72.90;;;;;;5032322;28;20057;-64
2022/08/12 01:33:50;;;;;;;;;;;21.70;73.00;;;;;;5032510;28;19993;-64
2022/08/12 01:36:19;;;;;;;;;;;21.70;73.10;;;;;;5033074;28;20289;-65
2022/08/12 01:38:47;;;;;;;;;;;21.70;72.80;;;;;;5032900;28;19979;-65
2022/08/12 01:41:16;;;;;;;;;;;21.60;73.00;;;;;;5032932;28;19966;-65
2022/08/12 01:43:45;;;;;;;;;;;21.70;73.10;;;;;;5032451;28;20028;-65
2022/08/12 01:46:21;;;;;;;;;;;21.60;73.00;;;;;;5032783;28;19974;-65
2022/08/12 01:48:58;;;;;;;;;;;21.70;73.00;;;;;;5032845;28;20027;-65
2022/08/12 01:51:33;;;;;;;;;;;21.70;73.10;;;;;;5032280;28;20068;-65
2022/08/12 01:54:22;;;;;;;;;;;21.70;73.50;;;;;;5032403;28;20027;-65
2022/08/12 01:56:51;;;;;;;;;;;21.70;73.30;;;;;;5032643;28;19973;-65
2022/08/12 01:59:49;;;;;;;;;;;21.60;73.40;;;;;;5032465;28;19987;-65
2022/08/12 02:02:18;;;;;;;;;;;21.60;73.40;;;;;;5032636;28;20044;-65
2022/08/12 02:13:31;;;;;;;;;;;21.50;74.30;;;;;;5032013;28;20170;-65
2022/08/12 02:16:26;;;;;;;;;;;21.50;74.40;;;;;;5032255;28;19987;-65
2022/08/12 02:18:59;;;;;;;;;;;21.40;74.10;;;;;;5032175;28;20017;-65
2022/08/12 02:21:31;;;;;;;;;;;21.40;74.40;;;;;;5031988;28;19976;-65
2022/08/12 02:24:00;;;;;;;;;;;21.30;74.40;;;;;;5031812;28;20036;-65
2022/08/12 02:26:30;;;;;;;;;;;21.30;74.60;;;;;;5032160;28;20438;-65
2022/08/12 02:28:58;;;;;;;;;;;21.30;74.40;;;;;;5032056;28;20040;-65
2022/08/12 02:31:28;;;;;;;;;;;21.30;74.60;;;;;;5031438;28;20536;-64
2022/08/12 02:33:57;;;;;;;;;;;21.30;74.60;;;;;;5031494;28;19971;-65
2022/08/12 02:36:26;;;;;;;;;;;21.20;74.70;;;;;;5031725;28;20508;-65
2022/08/12 02:38:58;;;;;;;;;;;21.20;74.80;;;;;;5031924;28;19990;-65
2022/08/12 02:41:26;;;;;;;;;;;21.10;75.00;;;;;;5031708;28;19968;-65
2022/08/12 02:43:55;;;;;;;;;;;21.10;75.30;;;;;;5031661;28;20021;-64
2022/08/12 02:46:26;;;;;;;;;;;21.10;75.40;;;;;;5031859;28;20668;-65
2022/08/12 02:48:58;;;;;;;;;;;21.00;75.50;;;;;;5031996;28;20029;-65
2022/08/12 02:51:30;;;;;;;;;;;21.00;75.80;;;;;;5031575;28;19987;-65
2022/08/12 02:53:59;;;;;;;;;;;20.90;76.10;;;;;;5031591;28;20673;-65
2022/08/12 02:56:33;;;;;;;;;;;20.90;76.20;;;;;;5031928;28;19976;-65
2022/08/12 02:59:01;;;;;;;;;;;20.90;76.40;;;;;;5032029;28;20056;-65
2022/08/12 03:01:32;;;;;;;;;;;20.80;76.50;;;;;;5031452;28;20628;-65
2022/08/12 03:04:03;;;;;;;;;;;20.80;77.10;;;;;;5032721;28;21047;-64
2022/08/12 03:06:33;;;;;;;;;;;20.80;77.10;;;;;;5035883;28;19980;-65
2022/08/12 03:09:02;;;;;;;;;;;20.80;77.30;;;;;;5035757;28;20529;-64
2022/08/12 03:11:35;;;;;;;;;;;20.70;77.90;;;;;;5035536;28;20153;-65
2022/08/12 03:14:12;;;;;;;;;;;20.70;77.50;;;;;;5035496;28;20035;-65
2022/08/12 03:16:41;;;;;;;;;;;20.70;77.60;;;;;;5035545;28;19973;-65
2022/08/12 03:19:10;;;;;;;;;;;20.70;77.70;;;;;;5035613;28;20011;-65
2022/08/12 03:21:41;;;;;;;;;;;20.70;77.80;;;;;;5035223;28;20016;-65
2022/08/12 03:24:30;;;;;;;;;;;20.70;78.00;;;;;;5035332;28;20013;-64
2022/08/12 03:27:02;;;;;;;;;;;20.60;78.30;;;;;;5035520;28;20493;-65
2022/08/12 03:29:31;;;;;;;;;;;20.60;78.10;;;;;;5035404;28;19988;-65
2022/08/12 03:32:24;;;;;;;;;;;20.60;78.60;;;;;;5035318;28;22430;-66
2022/08/12 03:35:16;;;;;;;;;;;20.60;78.70;;;;;;4982036;28;20005;-69
2022/08/12 03:38:07;;;;;;;;;;;20.50;78.60;;;;;;4995786;28;20162;-69
2022/08/12 04:00:23;;;;;;;;;;;20.40;79.80;;;;;;5014826;28;20743;-69
2022/08/12 04:02:57;;;;;;;;;;;20.30;80.00;;;;;;5014624;28;19973;-69
2022/08/12 04:05:25;;;;;;;;;;;20.30;80.20;;;;;;5014979;28;19997;-69
2022/08/12 04:08:15;;;;;;;;;;;20.30;80.30;;;;;;5014868;28;20304;-68
2022/08/12 04:13:25;;;;;;;;;;;20.30;80.60;;;;;;4992644;28;20420;-69
2022/08/12 04:15:52;;;;;;;;;;;20.20;80.70;;;;;;5014763;28;19971;-69
2022/08/12 04:18:22;;;;;;;;;;;20.20;80.90;;;;;;5014587;28;20487;-68
2022/08/12 04:20:51;;;;;;;;;;;20.20;81.10;;;;;;5014523;28;20488;-69
2022/08/12 04:23:20;;;;;;;;;;;20.20;81.10;;;;;;5014592;28;20067;-69
2022/08/12 04:25:48;;;;;;;;;;;20.20;81.30;;;;;;5014703;28;19990;-69
2022/08/12 04:28:16;;;;;;;;;;;20.10;81.30;;;;;;5014633;28;20009;-67
2022/08/12 04:30:44;;;;;;;;;;;20.10;81.40;;;;;;5013937;28;19973;-69
2022/08/12 04:33:12;;;;;;;;;;;20.10;81.80;;;;;;5014080;28;19968;-69
2022/08/12 04:35:40;;;;;;;;;;;20.10;81.90;;;;;;5014446;28;19981;-69
2022/08/12 04:38:08;;;;;;;;;;;20.10;82.10;;;;;;5014592;28;20180;-69
2022/08/12 04:40:38;;;;;;;;;;;20.10;81.90;;;;;;5013910;28;20119;-69
2022/08/12 04:43:06;;;;;;;;;;;20.10;82.10;;;;;;5014177;28;19998;-69
2022/08/12 04:45:53;;;;;;;;;;;20.10;82.40;;;;;;5014310;28;20534;-69
2022/08/12 04:48:21;;;;;;;;;;;20.10;82.60;;;;;;5014154;28;19978;-67
2022/08/12 04:50:49;;;;;;;;;;;20.10;82.90;;;;;;5013809;28;20622;-69
2022/08/12 04:53:17;;;;;;;;;;;20.20;82.90;;;;;;5013995;28;20023;-69
2022/08/12 04:55:47;;;;;;;;;;;20.20;82.60;;;;;;5013924;28;20366;-69
2022/08/12 04:58:14;;;;;;;;;;;20.20;83.70;;;;;;5014178;28;19969;-68
2022/08/12 05:00:56;;;;;;;;;;;20.20;83.30;;;;;;5013486;28;20423;-69
2022/08/12 05:03:24;;;;;;;;;;;20.20;83.00;;;;;;5013701;28;20023;-69
2022/08/12 05:05:55;;;;;;;;;;;20.30;83.70;;;;;;5013867;28;20037;-69
2022/08/12 05:08:24;;;;;;;;;;;20.30;83.40;;;;;;5013782;28;19967;-69
2022/08/12 05:10:53;;;;;;;;;;;20.40;83.50;;;;;;5013334;28;19964;-69
2022/08/12 05:13:22;;;;;;;;;;;20.40;83.00;;;;;;5013611;28;20359;-69
2022/08/12 05:15:50;;;;;;;;;;;20.50;83.10;;;;;;5013605;28;19975;-69
2022/08/12 05:18:32;;;;;;;;;;;20.60;83.50;;;;;;5013630;28;19965;-69
2022/08/12 05:21:01;;;;;;;;;;;20.60;83.60;;;;;;5013107;28;19967;-69
2022/08/12 05:23:30;;;;;;;;;;;20.70;83.70;;;;;;5013547;28;20485;-69
2022/08/12 05:26:00;;;;;;;;;;;20.80;83.60;;;;;;5013287;28;19970;-69
2022/08/12 05:28:29;;;;;;;;;;;20.80;83.60;;;;;;5013034;28;20620;-69
2022/08/12 05:30:57;;;;;;;;;;;20.90;83.30;;;;;;5012653;28;19991;-68
2022/08/12 05:33:36;;;;;;;;;;;21.00;83.90;;;;;;5013117;28;20030;-69
2022/08/12 05:36:07;;;;;;;;;;;21.10;83.80;;;;;;5013117;28;19969;-69
2022/08/12 05:41:23;;;;;;;;;;;21.20;83.40;;;;;;5012947;28;20008;-69
2022/08/12 05:43:51;;;;;;;;;;;21.30;81.90;;;;;;5013107;28;20559;-68
2022/08/12 05:46:20;;;;;;;;;;;21.40;83.20;;;;;;5013031;28;20155;-69
2022/08/12 05:48:48;;;;;;;;;;;21.50;82.20;;;;;;5013036;28;19972;-70
2022/08/12 05:51:16;;;;;;;;;;;21.60;82.10;;;;;;5012736;28;20026;-69
2022/08/12 05:53:44;;;;;;;;;;;21.70;80.80;;;;;;5012810;28;20050;-67
2022/08/12 05:56:18;;;;;;;;;;;21.80;81.00;;;;;;5012937;28;20363;-69
2022/08/12 05:58:49;;;;;;;;;;;21.90;80.90;;;;;;5012985;28;20021;-69
2022/08/12 06:01:17;;;;;;;;;;;21.90;80.00;;;;;;5012626;28;20124;-69
2022/08/12 06:04:05;;;;;;;;;;;22.00;79.70;;;;;;5012487;28;20010;-69
2022/08/12 06:06:40;;;;;;;;;;;22.10;79.50;;;;;;5012748;28;20458;-70
2022/08/12 06:09:09;;;;;;;;;;;22.20;79.20;;;;;;5012641;28;20581;-69
2022/08/12 06:11:40;;;;;;;;;;;22.30;79.80;;;;;;5012305;28;20078;-70
2022/08/12 06:14:27;;;;;;;;;;;22.30;79.10;;;;;;5012444;28;19985;-69
2022/08/12 06:16:56;;;;;;;;;;;22.40;78.80;;;;;;5012643;28;19971;-70
2022/08/12 06:19:26;;;;;;;;;;;22.50;78.90;;;;;;5012398;28;20439;-70
2022/08/12 06:22:14;;;;;;;;;;;22.60;78.60;;;;;;5012602;28;20119;-69
2022/08/12 06:24:42;;;;;;;;;;;22.70;78.20;;;;;;5012349;28;20120;-69
2022/08/12 06:27:10;;;;;;;;;;;22.80;78.00;;;;;;5012202;28;19979;-69
2022/08/12 06:29:40;;;;;;;;;;;22.90;78.40;;;;;;5012186;28;20367;-69
2022/08/12 06:32:28;;;;;;;;;;;23.10;77.20;;;;;;5012131;28;20715;-69
2022/08/12 06:34:58;;;;;;;;;;;23.10;77.80;;;;;;5011784;28;21224;-69
2022/08/12 06:37:47;;;;;;;;;;;23.20;76.90;;;;;;5011855;28;20739;-68
2022/08/12 06:43:06;;;;;;;;;;;23.40;76.20;;;;;;5011704;28;20520;-69
2022/08/12 06:45:43;;;;;;;;;;;23.40;76.00;;;;;;5011970;28;20521;-69
2022/08/12 06:48:13;;;;;;;;;;;23.50;76.10;;;;;;5012365;28;19974;-69
2022/08/12 06:50:43;;;;;;;;;;;23.60;75.10;;;;;;5011907;28;19975;-69
2022/08/12 06:53:11;;;;;;;;;;;23.60;75.40;;;;;;5012092;28;20006;-68
2022/08/12 06:55:41;;;;;;;;;;;23.60;75.80;;;;;;5011876;28;19978;-68
2022/08/12 06:58:25;;;;;;;;;;;23.70;75.20;;;;;;5012164;28;21285;-69
2022/08/12 07:00:56;;;;;;;;;;;23.80;75.70;;;;;;5011938;28;21177;-70
2022/08/12 07:03:26;;;;;;;;;;;23.90;75.50;;;;;;5012346;28;20046;-69
2022/08/12 07:05:56;;;;;;;;;;;24.00;75.00;;;;;;5011535;28;20012;-69
2022/08/12 07:08:27;;;;;;;;;;;24.00;74.60;;;;;;5012014;28;20719;-69
2022/08/12 07:10:58;;;;;;;;;;;24.00;73.70;;;;;;5011994;28;19993;-70
2022/08/12 07:13:27;;;;;;;;;;;24.10;74.90;;;;;;5011833;28;20482;-69
2022/08/12 07:15:57;;;;;;;;;;;24.20;75.00;;;;;;5011640;28;20742;-69
2022/08/12 07:18:31;;;;;;;;;;;24.40;73.60;;;;;;5011914;28;20697;-69
2022/08/12 07:21:00;;;;;;;;;;;24.40;73.70;;;;;;5011659;28;20005;-70
2022/08/12 07:23:29;;;;;;;;;;;24.40;73.80;;;;;;5011729;28;20761;-70
2022/08/12 07:25:57;;;;;;;;;;;24.50;73.50;;;;;;5011686;28;20897;-69
2022/08/12 07:28:28;;;;;;;;;;;24.60;72.60;;;;;;5011789;28;20102;-69
2022/08/12 07:30:57;;;;;;;;;;;24.50;73.20;;;;;;5010989;28;20529;-70
2022/08/12 07:33:26;;;;;;;;;;;24.60;73.10;;;;;;5011436;28;20668;-69
2022/08/12 07:35:55;;;;;;;;;;;24.70;73.20;;;;;;5011469;28;19969;-69
2022/08/12 07:38:26;;;;;;;;;;;24.90;73.70;;;;;;5011638;28;20387;-69
2022/08/12 07:40:58;;;;;;;;;;;25.10;72.10;;;;;;5011593;28;20731;-69
2022/08/12 07:43:26;;;;;;;;;;;25.10;72.80;;;;;;5011709;28;25068;-69
2022/08/12 07:45:55;;;;;;;;;;;25.20;73.00;;;;;;5011292;28;20684;-70
2022/08/12 07:48:24;;;;;;;;;;;25.30;72.40;;;;;;5011742;28;20284;-67
2022/08/12 07:50:53;;;;;;;;;;;25.50;72.60;;;;;;5014301;28;20727;-70
2022/08/12 07:53:21;;;;;;;;;;;25.60;72.50;;;;;;5015073;28;21172;-68
2022/08/12 07:55:48;;;;;;;;;;;25.70;71.90;;;;;;5014701;28;25066;-68
2022/08/12 07:58:17;;;;;;;;;;;25.80;72.20;;;;;;5015320;28;21191;-69
2022/08/12 08:00:45;;;;;;;;;;;26.00;72.10;;;;;;5014877;28;20808;-69
2022/08/12 08:03:15;;;;;;;;;;;26.00;71.10;;;;;;5015028;28;20478;-70
2022/08/12 08:05:45;;;;;;;;;;;26.20;71.40;;;;;;5014697;28;20738;-70
2022/08/12 08:08:14;;;;;;;;;;;26.30;72.60;;;;;;5014803;28;20640;-70
2022/08/12 08:10:42;;;;;;;;;;;26.40;70.80;;;;;;5014576;28;20555;-69
2022/08/12 08:13:11;;;;;;;;;;;26.60;70.10;;;;;;5014694;28;20731;-70
2022/08/12 08:15:39;;;;;;;;;;;26.70;70.50;;;;;;5014562;28;20098;-69
2022/08/12 08:18:27;;;;;;;;;;;26.70;70.00;;;;;;5014711;28;20770;-70
2022/08/12 08:20:56;;;;;;;;;;;26.80;71.30;;;;;;5029564;28;20537;-70
2022/08/12 08:24:13;;;;;;;;;;;27.00;70.20;;;;;;5014356;28;25069;-70
2022/08/12 08:26:25;;;;;;;;;;;27.10;69.90;;;;;;5014351;28;20121;-69
2022/08/12 08:28:53;;;;;;;;;;;27.30;69.60;;;;;;5014436;28;20663;-70
2022/08/12 08:31:21;;;;;;;;;;;27.30;69.20;;;;;;5014066;28;20710;-70
2022/08/12 08:33:49;;;;;;;;;;;27.30;68.30;;;;;;5014016;28;25112;-70
2022/08/12 08:36:38;;;;;;;;;;;27.30;68.50;;;;;;5014038;28;21284;-70
2022/08/12 08:39:06;;;;;;;;;;;27.60;69.30;;;;;;5014291;28;20784;-70
2022/08/12 08:44:40;;;;;;;;;;;27.80;68.50;;;;;;5014200;28;20945;-70
2022/08/12 08:47:09;;;;;;;;;;;28.10;67.10;;;;;;5013760;28;20708;-69
2022/08/12 08:49:37;;;;;;;;;;;28.20;67.20;;;;;;5013803;28;20523;-70
2022/08/12 08:52:08;;;;;;;;;;;28.30;67.10;;;;;;5014092;28;20519;-70
2022/08/12 08:54:36;;;;;;;;;;;28.50;65.80;;;;;;5014079;28;20286;-70
2022/08/12 08:57:06;;;;;;;;;;;28.50;65.80;;;;;;5013770;28;20336;-69
2022/08/12 08:59:35;;;;;;;;;;;28.80;67.10;;;;;;5013701;28;21157;-67
2022/08/12 09:02:02;;;;;;;;;;;28.80;65.80;;;;;;5013006;28;20132;-70
2022/08/12 09:04:34;;;;;;;;;;;29.10;64.60;;;;;;5013756;28;25060;-69
2022/08/12 09:07:24;;;;;;;;;;;28.90;64.90;;;;;;5013537;28;20159;-69
2022/08/12 09:10:12;;;;;;;;;;;29.00;65.30;;;;;;5013433;28;20252;-70
2022/08/12 09:15:56;;;;;;;;;;;29.30;64.80;;;;;;5013839;28;20655;-69
2022/08/12 09:18:26;;;;;;;;;;;29.50;63.80;;;;;;5013456;28;25114;-70
2022/08/12 09:21:14;;;;;;;;;;;29.30;63.50;;;;;;5013147;28;20230;-70
2022/08/12 09:23:43;;;;;;;;;;;29.20;63.40;;;;;;5028643;28;20231;-70
2022/08/12 09:26:28;;;;;;;;;;;29.30;63.70;;;;;;5013482;28;20159;-71
2022/08/12 09:28:56;;;;;;;;;;;29.50;62.90;;;;;;5013333;28;20276;-70
2022/08/12 09:31:24;;;;;;;;;;;29.70;63.30;;;;;;5012516;28;20238;-69
2022/08/12 09:34:13;;;;;;;;;;;29.70;63.70;;;;;;5050194;22;20347;-66
2022/08/12 09:37:00;;;;;;;;;;;29.90;63.40;;;;;;5033019;28;20849;-65
2022/08/12 09:39:48;;;;;;;;;;;30.00;63.00;;;;;;5033079;28;25161;-65
2022/08/12 09:45:46;;;;;;;;;;;30.70;61.90;;;;;;5013545;28;20473;-66
2022/08/12 09:48:34;;;;;;;;;;;31.00;61.80;;;;;;5013125;28;20130;-65
2022/08/12 09:51:03;;;;;;;;;;;31.20;61.00;;;;;;5013103;28;20558;-65
2022/08/12 09:53:50;;;;;;;;;;;31.00;60.60;;;;;;5013204;28;25063;-65
2022/08/12 09:56:39;;;;;;;;;;;31.00;60.30;;;;;;5013669;28;20356;-65
2022/08/12 09:59:27;;;;;;;;;;;30.90;60.70;;;;;;5013240;28;20196;-65
2022/08/12 10:02:15;;;;;;;;;;;30.90;60.30;;;;;;5013230;28;20269;-65
2022/08/12 10:05:02;;;;;;;;;;;31.30;61.00;;;;;;5013535;28;20794;-65
2022/08/12 10:07:30;;;;;;;;;;;31.70;60.50;;;;;;5013132;28;20217;-65
2022/08/12 10:10:08;;;;;;;;;;;31.60;58.60;;;;;;5013283;28;20187;-65
2022/08/12 10:16:02;;;;;;;;;;;31.90;58.80;;;;;;5012789;28;25079;-66
2022/08/12 10:18:32;;;;;;;;;;;32.20;59.40;;;;;;5012748;28;20244;-65
2022/08/12 10:21:05;;;;;;;;;;;32.10;59.50;;;;;;5012633;28;20138;-66
2022/08/12 10:23:34;;;;;;;;;;;32.00;58.40;;;;;;5012912;28;20893;-66
2022/08/12 10:32:16;;;;;;;;;;;31.10;59.00;;;;;;5012424;28;20198;-66
2022/08/12 10:34:49;;;;;;;;;;;31.40;58.90;;;;;;5028008;28;25101;-66
2022/08/12 10:37:21;;;;;;;;;;;31.40;58.70;;;;;;5032041;28;20463;-65
2022/08/12 10:40:10;;;;;;;;;;;31.60;58.90;;;;;;5031584;28;20685;-65
2022/08/12 10:45:47;;;;;;;;;;;31.50;57.90;;;;;;5018987;28;20154;-65
2022/08/12 10:48:19;;;;;;;;;;;31.10;58.00;;;;;;5031594;28;20222;-65
2022/08/12 10:51:02;;;;;;;;;;;31.50;58.40;;;;;;5031216;28;20259;-65
2022/08/12 10:53:55;;;;;;;;;;;31.50;58.60;;;;;;5031239;28;20215;-66
2022/08/12 10:56:30;;;;;;;;;;;31.60;57.70;;;;;;5031039;28;20231;-66
2022/08/12 10:59:02;;;;;;;;;;;31.80;58.50;;;;;;5031223;28;20198;-66
2022/08/12 11:01:32;;;;;;;;;;;32.00;58.10;;;;;;5030966;28;20202;-66
2022/08/12 11:04:20;;;;;;;;;;;32.50;58.50;;;;;;5031147;28;20241;-66
2022/08/12 11:06:55;;;;;;;;;;;32.80;57.30;;;;;;5030813;28;20195;-66
2022/08/12 11:09:45;;;;;;;;;;;32.20;57.30;;;;;;5031035;28;20192;-65
2022/08/12 11:12:29;;;;;;;;;;;32.00;58.10;;;;;;5030848;28;20213;-66
2022/08/12 11:15:21;;;;;;;;;;;32.10;58.10;;;;;;5031004;28;20788;-66
2022/08/12 11:18:10;;;;;;;;;;;32.10;58.50;;;;;;5030877;28;20274;-66
2022/08/12 11:20:46;;;;;;;;;;;32.10;57.00;;;;;;5030605;28;20199;-66
2022/08/12 11:23:14;;;;;;;;;;;32.20;58.30;;;;;;5030958;28;20284;-65
2022/08/12 11:26:01;;;;;;;;;;;32.20;57.40;;;;;;5033399;28;20189;-67
2022/08/12 11:28:33;;;;;;;;;;;32.40;57.20;;;;;;5034380;28;20245;-66
2022/08/12 11:31:04;;;;;;;;;;;32.20;57.30;;;;;;5033630;28;20288;-65
2022/08/12 11:33:33;;;;;;;;;;;32.20;57.50;;;;;;4968612;28;1866427;-66
2022/08/12 11:36:21;;;;;;;;;;;32.60;57.20;;;;;;5035352;28;20308;-66
2022/08/12 11:38:49;;;;;;;;;;;32.90;56.30;;;;;;5035413;28;20169;-66
2022/08/12 11:41:18;;;;;;;;;;;33.30;57.20;;;;;;5035013;28;20179;-66
2022/08/12 11:43:59;;;;;;;;;;;32.90;56.60;;;;;;5035339;28;20197;-66
2022/08/12 11:46:47;;;;;;;;;;;32.90;55.90;;;;;;5034959;28;20201;-66
2022/08/12 11:49:22;;;;;;;;;;;32.70;56.10;;;;;;5035378;28;20256;-66
2022/08/12 11:51:58;;;;;;;;;;;33.00;56.30;;;;;;5035426;28;20228;-66
2022/08/12 11:54:26;;;;;;;;;;;33.00;56.20;;;;;;5034874;28;20683;-66
2022/08/12 11:56:56;;;;;;;;;;;32.80;55.80;;;;;;5034672;28;20779;-66
2022/08/12 11:59:27;;;;;;;;;;;32.90;55.50;;;;;;5035050;28;20268;-66
2022/08/12 12:02:15;;;;;;;;;;;33.10;56.40;;;;;;5034806;28;20178;-66
2022/08/12 12:04:49;;;;;;;;;;;33.40;55.20;;;;;;5035107;28;20192;-66
2022/08/12 12:07:21;;;;;;;;;;;33.90;54.80;;;;;;5034680;28;20194;-66
2022/08/12 12:10:09;;;;;;;;;;;34.40;55.60;;;;;;5034496;28;20237;-66
2022/08/12 12:12:37;;;;;;;;;;;34.00;53.90;;;;;;5034602;28;20200;-66
2022/08/12 12:15:16;;;;;;;;;;;33.60;54.50;;;;;;5034799;28;20237;-66
2022/08/12 12:18:03;;;;;;;;;;;33.60;54.70;;;;;;5034501;28;20255;-66
2022/08/12 12:20:33;;;;;;;;;;;33.60;54.80;;;;;;5034425;28;20202;-66
2022/08/12 12:23:02;;;;;;;;;;;33.70;54.70;;;;;;5034638;28;20597;-66
2022/08/12 12:25:30;;;;;;;;;;;33.80;54.40;;;;;;5034561;28;20183;-66
2022/08/12 12:28:18;;;;;;;;;;;33.80;54.10;;;;;;5034397;28;20216;-66
2022/08/12 12:31:05;;;;;;;;;;;33.50;54.40;;;;;;5033759;28;20256;-66
2022/08/12 12:33:52;;;;;;;;;;;33.30;54.00;;;;;;5033937;28;20274;-66
2022/08/12 12:36:26;;;;;;;;;;;33.50;53.90;;;;;;5033131;28;20182;-66
2022/08/12 12:38:57;;;;;;;;;;;33.40;53.50;;;;;;5034249;28;20180;-66
2022/08/12 12:41:27;;;;;;;;;;;33.80;53.50;;;;;;5033758;28;20251;-66
2022/08/12 12:44:15;;;;;;;;;;;34.30;53.30;;;;;;5034080;28;20239;-66
2022/08/12 12:47:02;;;;;;;;;;;34.70;53.60;;;;;;5034150;28;20177;-66
2022/08/12 12:49:50;;;;;;;;;;;34.70;53.50;;;;;;5033824;28;20188;-66
2022/08/12 12:52:21;;;;;;;;;;;34.30;53.00;;;;;;5033932;28;20653;-66
2022/08/12 12:54:57;;;;;;;;;;;34.10;53.00;;;;;;5034075;28;20635;-66
2022/08/12 12:57:25;;;;;;;;;;;33.70;52.10;;;;;;5033934;28;20182;-66
2022/08/12 13:00:16;;;;;;;;;;;33.50;51.60;;;;;;5033739;28;20210;-66
2022/08/12 13:02:51;;;;;;;;;;;34.10;52.40;;;;;;5033705;28;20076;-66
2022/08/12 13:05:22;;;;;;;;;;;34.50;52.70;;;;;;5033871;28;20681;-66
2022/08/12 13:07:56;;;;;;;;;;;34.50;51.90;;;;;;5033649;28;25079;-66
2022/08/12 13:10:29;;;;;;;;;;;34.40;52.20;;;;;;5033574;28;20542;-66
2022/08/12 13:13:04;;;;;;;;;;;34.20;51.90;;;;;;5033679;28;20224;-66
2022/08/12 13:15:52;;;;;;;;;;;34.40;52.10;;;;;;5033618;28;20640;-66
2022/08/12 13:18:32;;;;;;;;;;;34.60;51.60;;;;;;5033605;28;20639;-67
2022/08/12 13:21:01;;;;;;;;;;;34.50;51.10;;;;;;5033346;28;20194;-66
2022/08/12 13:23:30;;;;;;;;;;;34.30;51.00;;;;;;5033171;28;20216;-66
2022/08/12 13:26:04;;;;;;;;;;;34.30;51.50;;;;;;5033379;28;20176;-66
2022/08/12 13:28:32;;;;;;;;;;;34.20;51.60;;;;;;5033210;28;20264;-66
2022/08/12 13:31:00;;;;;;;;;;;34.00;51.50;;;;;;5032662;28;20198;-66
2022/08/12 13:33:28;;;;;;;;;;;34.30;51.20;;;;;;5032822;28;20096;-66
2022/08/12 13:36:16;;;;;;;;;;;34.50;51.80;;;;;;5032901;28;25108;-66
2022/08/12 13:38:49;;;;;;;;;;;34.50;51.60;;;;;;5033239;28;20163;-66
2022/08/12 13:41:32;;;;;;;;;;;34.30;52.20;;;;;;5032936;28;20192;-66
2022/08/12 13:44:00;;;;;;;;;;;33.90;52.10;;;;;;5033114;28;20101;-66
2022/08/12 13:46:28;;;;;;;;;;;33.60;51.90;;;;;;5032904;28;20190;-66
2022/08/12 13:48:56;;;;;;;;;;;33.80;52.00;;;;;;5032399;28;20190;-66
2022/08/12 13:51:24;;;;;;;;;;;34.20;52.20;;;;;;5032569;28;20181;-66
2022/08/12 13:54:09;;;;;;;;;;;34.40;51.80;;;;;;5032429;28;25158;-66
2022/08/12 13:56:40;;;;;;;;;;;34.30;52.30;;;;;;5032957;28;20597;-66
2022/08/12 13:59:17;;;;;;;;;;;34.60;53.40;;;;;;5032770;28;20539;-66
2022/08/12 14:01:53;;;;;;;;;;;34.80;52.30;;;;;;5032051;28;20269;-66
2022/08/12 14:04:23;;;;;;;;;;;34.70;52.00;;;;;;5032402;28;25102;-66
2022/08/12 14:06:52;;;;;;;;;;;34.50;52.50;;;;;;5032501;28;20087;-66
2022/08/12 14:09:21;;;;;;;;;;;34.40;52.60;;;;;;5032566;28;20355;-66
2022/08/12 14:11:56;;;;;;;;;;;34.70;52.40;;;;;;5032241;28;20196;-66
2022/08/12 14:14:26;;;;;;;;;;;35.10;51.90;;;;;;5032394;28;20198;-66
2022/08/12 14:17:01;;;;;;;;;;;35.30;51.60;;;;;;5032379;28;20682;-66
2022/08/12 14:19:32;;;;;;;;;;;35.40;52.30;;;;;;5032314;28;20214;-66
2022/08/12 14:22:09;;;;;;;;;;;35.40;51.90;;;;;;5032113;28;20278;-67
2022/08/12 14:24:38;;;;;;;;;;;35.20;51.90;;;;;;5032206;28;20200;-66
2022/08/12 14:27:08;;;;;;;;;;;34.20;52.00;;;;;;5032409;28;20177;-66
2022/08/12 14:29:41;;;;;;;;;;;33.60;52.90;;;;;;5031967;28;20243;-65
2022/08/12 14:32:33;;;;;;;;;;;33.30;52.70;;;;;;5031702;28;20235;-66
2022/08/12 14:35:03;;;;;;;;;;;33.30;52.90;;;;;;5031825;28;20224;-66
2022/08/12 14:37:31;;;;;;;;;;;33.70;53.00;;;;;;5032399;28;20168;-66
2022/08/12 14:40:21;;;;;;;;;;;33.80;53.00;;;;;;5031938;28;20204;-66
2022/08/12 14:42:54;;;;;;;;;;;33.80;52.70;;;;;;5031797;28;20199;-66
2022/08/12 14:45:24;;;;;;;;;;;34.20;52.90;;;;;;5031936;28;20181;-66
2022/08/12 14:48:12;;;;;;;;;;;34.10;52.50;;;;;;5032174;28;20274;-66
2022/08/12 14:50:42;;;;;;;;;;;34.60;52.10;;;;;;5032016;28;20223;-66
2022/08/12 14:53:30;;;;;;;;;;;34.50;52.60;;;;;;5031828;28;20351;-66
2022/08/12 14:56:20;;;;;;;;;;;34.80;52.10;;;;;;5031744;28;20242;-66
2022/08/12 15:02:19;;;;;;;;;;;34.50;52.60;;;;;;5035913;28;20211;-67
2022/08/12 15:04:51;;;;;;;;;;;34.50;52.20;;;;;;5036009;28;20201;-66
2022/08/12 15:07:18;;;;;;;;;;;34.30;52.50;;;;;;5036340;28;20189;-66
2022/08/12 15:10:06;;;;;;;;;;;34.40;52.60;;;;;;5035682;28;20243;-66
2022/08/12 15:12:36;;;;;;;;;;;34.90;52.70;;;;;;5035646;28;20242;-66
2022/08/12 15:15:07;;;;;;;;;;;35.20;53.10;;;;;;5035976;28;20202;-66
2022/08/12 15:17:37;;;;;;;;;;;35.00;51.90;;;;;;5035773;28;20597;-66
2022/08/12 15:20:06;;;;;;;;;;;34.50;51.50;;;;;;5035360;28;20173;-66
2022/08/12 15:22:55;;;;;;;;;;;34.50;51.50;;;;;;5035406;28;20223;-66
2022/08/12 15:25:24;;;;;;;;;;;34.40;52.20;;;;;;5035659;28;20721;-66
2022/08/12 15:27:55;;;;;;;;;;;33.60;52.40;;;;;;5035527;28;20557;-66
2022/08/12 15:30:33;;;;;;;;;;;33.30;52.80;;;;;;5035391;28;20213;-66
2022/08/12 15:33:02;;;;;;;;;;;33.00;52.60;;;;;;5034887;28;20246;-66
2022/08/12 15:35:49;;;;;;;;;;;32.30;52.60;;;;;;5059752;22;20248;-64
2022/08/12 15:38:21;;;;;;;;;;;32.30;52.70;;;;;;5035075;28;20204;-65
2022/08/12 15:40:53;;;;;;;;;;;32.30;53.10;;;;;;5035164;28;20199;-65
2022/08/12 15:43:24;;;;;;;;;;;32.60;52.30;;;;;;5035176;28;20564;-64
2022/08/12 15:46:12;;;;;;;;;;;32.10;52.10;;;;;;5015472;28;20163;-64
2022/08/12 15:48:43;;;;;;;;;;;31.90;51.50;;;;;;5015360;28;20175;-65
2022/08/12 15:51:26;;;;;;;;;;;32.00;51.90;;;;;;5015124;28;20197;-65
2022/08/12 15:54:14;;;;;;;;;;;32.20;51.80;;;;;;5015024;28;20218;-64
2022/08/12 15:57:04;;;;;;;;;;;32.50;52.30;;;;;;5015336;28;20167;-65
2022/08/12 15:59:37;;;;;;;;;;;32.90;52.20;;;;;;5015213;28;20178;-65
2022/08/12 16:02:25;;;;;;;;;;;33.00;51.60;;;;;;5015044;28;20217;-64
2022/08/12 16:04:56;;;;;;;;;;;33.20;52.40;;;;;;5015216;28;20593;-65
2022/08/12 16:07:25;;;;;;;;;;;33.20;51.80;;;;;;5015329;28;20275;-64
2022/08/12 16:10:04;;;;;;;;;;;33.00;52.00;;;;;;5014664;28;20191;-64
2022/08/12 16:12:40;;;;;;;;;;;33.20;51.80;;;;;;5014830;28;20177;-64
2022/08/12 16:15:12;;;;;;;;;;;33.10;52.10;;;;;;5014933;28;20242;-64
2022/08/12 16:17:40;;;;;;;;;;;32.70;52.10;;;;;;5014893;28;20165;-64
2022/08/12 16:20:28;;;;;;;;;;;32.50;52.10;;;;;;5014899;28;20605;-65
2022/08/12 16:23:02;;;;;;;;;;;32.20;52.20;;;;;;5014658;28;20654;-64
2022/08/12 16:25:31;;;;;;;;;;;31.80;52.40;;;;;;5014708;28;20254;-64
2022/08/12 16:28:19;;;;;;;;;;;31.30;52.70;;;;;;5014715;28;20618;-64
2022/08/12 16:30:56;;;;;;;;;;;31.00;53.50;;;;;;5013948;28;20096;-64
2022/08/12 16:33:31;;;;;;;;;;;30.80;53.40;;;;;;5014629;28;20213;-66
2022/08/12 16:36:04;;;;;;;;;;;30.70;53.30;;;;;;5014616;28;20229;-65
2022/08/12 16:38:37;;;;;;;;;;;30.60;53.90;;;;;;5015118;28;20202;-65
2022/08/12 16:41:06;;;;;;;;;;;30.70;54.00;;;;;;5014223;28;20201;-65
2022/08/12 16:43:34;;;;;;;;;;;30.60;54.10;;;;;;5014087;28;20603;-65
2022/08/12 16:46:06;;;;;;;;;;;30.50;54.10;;;;;;5014395;28;20193;-65
2022/08/12 16:48:53;;;;;;;;;;;30.40;53.90;;;;;;5014405;28;20280;-65
2022/08/12 16:51:25;;;;;;;;;;;30.30;54.50;;;;;;5013997;28;20257;-65